Time;durP1;ratioP1;P1;durP2;ratioP2;P2;SDS_P1;SDS_P2;PMS_P1;PMS_P2;Temp;Humidity;BMP_temperature;BMP_pressure;BME280_temperature;BME280_humidity;BME280_pressure;Samples;Min_cycle;Max_cycle;Signal;HPM_P1;HPM_P2
2023/01/23 00:00:54;;;;;;;6.60;3.97;;;9.00;82.70;;;;;;6292541;22;19999;-85
2023/01/23 00:03:20;;;;;;;6.00;3.65;;;9.00;82.70;;;;;;6280664;22;20011;-86
2023/01/23 00:05:54;;;;;;;6.75;4.53;;;9.00;82.70;;;;;;6287848;22;20031;-85
2023/01/23 00:08:20;;;;;;;7.00;4.40;;;9.00;82.70;;;;;;6291366;22;20006;-86
2023/01/23 00:10:45;;;;;;;6.88;4.15;;;9.00;82.70;;;;;;6291406;22;20014;-85
2023/01/23 00:13:11;;;;;;;7.20;4.45;;;9.00;82.80;;;;;;6290811;22;20090;-87
2023/01/23 00:15:38;;;;;;;6.50;3.95;;;9.00;82.70;;;;;;6290639;22;20003;-85
2023/01/23 00:18:04;;;;;;;6.57;4.25;;;9.00;82.70;;;;;;6290014;22;20445;-86
2023/01/23 00:20:29;;;;;;;6.50;4.60;;;9.00;82.70;;;;;;6289518;22;20005;-85
2023/01/23 00:22:54;;;;;;;6.55;4.28;;;9.00;82.70;;;;;;6284854;22;20003;-85
2023/01/23 00:25:20;;;;;;;6.32;3.90;;;9.00;82.70;;;;;;6310297;22;19998;-86
2023/01/23 00:27:45;;;;;;;6.75;4.13;;;9.00;82.70;;;;;;6308868;22;20045;-85
2023/01/23 00:30:12;;;;;;;6.93;4.32;;;9.00;82.70;;;;;;6315513;22;19999;-85
2023/01/23 00:32:38;;;;;;;6.47;4.13;;;9.00;82.70;;;;;;6288256;22;20011;-86
2023/01/23 00:35:04;;;;;;;6.60;4.07;;;9.00;82.70;;;;;;6315147;22;20053;-85
2023/01/23 00:37:29;;;;;;;6.68;4.30;;;9.00;82.80;;;;;;6282858;22;20004;-86
2023/01/23 00:39:55;;;;;;;6.60;4.05;;;9.00;82.70;;;;;;6309624;22;20034;-85
2023/01/23 00:42:20;;;;;;;6.75;4.22;;;9.00;82.80;;;;;;6284884;22;19999;-86
2023/01/23 00:44:46;;;;;;;6.47;3.90;;;9.00;82.70;;;;;;6289300;22;19999;-84
2023/01/23 00:47:11;;;;;;;6.88;4.13;;;9.00;82.70;;;;;;6288662;22;20082;-85
2023/01/23 00:49:37;;;;;;;6.88;4.10;;;9.00;82.80;;;;;;6289593;22;20010;-86
2023/01/23 00:52:02;;;;;;;6.95;4.30;;;9.00;82.80;;;;;;6289292;22;19999;-85
2023/01/23 00:54:28;;;;;;;6.32;4.10;;;9.00;82.80;;;;;;6283595;22;20003;-85
2023/01/23 00:56:53;;;;;;;7.22;4.28;;;9.00;82.80;;;;;;6283502;22;20011;-85
2023/01/23 00:59:19;;;;;;;6.85;3.97;;;9.00;82.80;;;;;;6288046;22;20014;-84
2023/01/23 01:01:44;;;;;;;6.47;4.00;;;9.00;82.80;;;;;;6288104;22;20383;-85
2023/01/23 01:04:10;;;;;;;6.70;3.97;;;9.00;82.70;;;;;;6285978;22;20011;-85
2023/01/23 01:06:35;;;;;;;6.53;3.83;;;9.00;82.80;;;;;;6314278;22;20589;-84
2023/01/23 01:09:01;;;;;;;26.65;4.78;;;9.00;82.80;;;;;;6288154;22;20133;-85
2023/01/23 01:11:27;;;;;;;6.20;3.95;;;9.00;82.70;;;;;;6289143;22;20053;-85
2023/01/23 01:13:53;;;;;;;7.07;4.50;;;9.00;82.80;;;;;;6288239;22;20003;-85
2023/01/23 01:16:19;;;;;;;7.78;4.50;;;9.00;82.80;;;;;;6287408;22;20022;-86
2023/01/23 01:18:44;;;;;;;6.22;4.13;;;9.00;82.80;;;;;;6287799;22;20007;-85
2023/01/23 01:21:13;;;;;;;6.13;3.92;;;9.00;82.80;;;;;;6288079;22;20495;-84
2023/01/23 01:23:39;;;;;;;6.80;3.80;;;9.00;82.80;;;;;;6312614;22;20010;-85
2023/01/23 01:26:05;;;;;;;7.05;4.50;;;9.00;82.80;;;;;;6285572;22;19996;-86
2023/01/23 01:28:32;;;;;;;6.63;3.80;;;9.00;82.80;;;;;;6285439;22;20000;-87
2023/01/23 01:31:03;;;;;;;6.65;4.10;;;9.00;82.80;;;;;;6286999;22;20011;-86
2023/01/23 01:33:29;;;;;;;6.60;4.10;;;9.00;82.80;;;;;;6315598;22;20003;-85
2023/01/23 01:35:55;;;;;;;7.00;4.20;;;9.00;82.90;;;;;;6286525;22;20031;-84
2023/01/23 01:38:21;;;;;;;6.53;4.00;;;9.00;82.80;;;;;;6285563;22;20046;-86
2023/01/23 01:40:47;;;;;;;6.15;3.92;;;9.00;82.80;;;;;;6282482;22;20039;-87
2023/01/23 01:43:24;;;;;;;6.85;4.20;;;9.00;82.80;;;;;;6285134;22;20003;-84
2023/01/23 01:46:04;;;;;;;6.00;3.75;;;9.00;82.80;;;;;;6286135;22;20003;-86
2023/01/23 01:48:32;;;;;;;7.18;4.22;;;9.00;82.80;;;;;;6287374;22;20056;-86
2023/01/23 01:51:01;;;;;;;6.40;4.20;;;9.00;82.80;;;;;;6287149;22;20083;-86
2023/01/23 01:53:29;;;;;;;7.18;4.30;;;8.90;82.70;;;;;;6283606;22;20007;-87
2023/01/23 01:55:56;;;;;;;6.65;4.03;;;9.00;82.80;;;;;;6282754;22;20003;-86
2023/01/23 01:58:22;;;;;;;6.20;3.90;;;9.00;82.90;;;;;;6310650;22;20078;-84
2023/01/23 02:00:47;;;;;;;6.72;3.92;;;9.00;82.80;;;;;;6313305;22;20353;-85
2023/01/23 02:03:15;;;;;;;7.00;4.25;;;8.90;82.80;;;;;;6314526;22;20007;-85
2023/01/23 02:05:47;;;;;;;7.22;4.20;;;9.00;82.90;;;;;;6314264;22;20022;-84
2023/01/23 02:08:26;;;;;;;6.28;3.67;;;9.00;82.90;;;;;;6296573;22;19999;-87
2023/01/23 02:10:52;;;;;;;7.40;4.47;;;8.90;82.80;;;;;;6297088;22;20464;-85
2023/01/23 02:13:22;;;;;;;5.82;3.58;;;9.00;82.90;;;;;;6292385;22;20039;-83
2023/01/23 02:15:49;;;;;;;7.07;3.78;;;9.00;82.80;;;;;;6293048;22;20013;-86
2023/01/23 02:18:14;;;;;;;6.53;3.80;;;9.00;82.80;;;;;;6318334;22;20003;-86
2023/01/23 02:20:40;;;;;;;6.78;3.88;;;9.00;82.90;;;;;;6291778;22;20003;-85
2023/01/23 02:23:28;;;;;;;6.65;3.83;;;9.00;82.80;;;;;;6316512;22;20119;-85
2023/01/23 02:25:59;;;;;;;7.20;4.30;;;9.00;83.30;;;;;;6281894;22;20082;-84
2023/01/23 02:28:36;;;;;;;6.95;4.15;;;9.00;82.80;;;;;;6317448;22;19995;-85
2023/01/23 02:31:02;;;;;;;6.82;4.10;;;9.00;82.90;;;;;;6317081;22;20019;-86
2023/01/23 02:33:27;;;;;;;6.60;3.95;;;9.00;82.80;;;;;;6287371;22;20007;-85
2023/01/23 02:35:54;;;;;;;7.00;3.67;;;9.00;82.90;;;;;;6281802;22;20010;-84
2023/01/23 02:38:25;;;;;;;6.63;4.03;;;9.00;82.80;;;;;;6287967;22;20472;-85
2023/01/23 02:40:51;;;;;;;6.57;3.70;;;9.00;82.80;;;;;;6287869;22;20445;-86
2023/01/23 02:43:20;;;;;;;7.22;4.20;;;9.00;82.80;;;;;;6315140;22;20241;-86
2023/01/23 02:45:46;;;;;;;6.80;4.00;;;9.00;82.80;;;;;;6282239;22;20319;-86
2023/01/23 02:48:12;;;;;;;7.20;4.10;;;9.00;82.80;;;;;;6286362;22;20006;-85
2023/01/23 02:50:37;;;;;;;6.65;4.20;;;9.00;83.30;;;;;;6288745;22;20019;-85
2023/01/23 02:53:04;;;;;;;6.55;3.67;;;8.90;82.80;;;;;;6288078;22;20003;-84
2023/01/23 02:55:30;;;;;;;6.40;3.90;;;9.00;82.90;;;;;;6286804;22;20007;-86
2023/01/23 03:00:42;;;;;;;6.90;4.38;;;9.00;82.80;;;;;;6319681;22;20015;-86
2023/01/23 03:03:08;;;;;;;6.60;4.00;;;9.00;82.90;;;;;;6291679;22;20018;-85
2023/01/23 03:05:34;;;;;;;7.07;3.83;;;9.00;82.90;;;;;;6318612;22;20076;-86
2023/01/23 03:07:59;;;;;;;6.72;4.10;;;9.00;82.90;;;;;;6291644;22;20006;-85
2023/01/23 03:10:25;;;;;;;6.75;4.20;;;9.00;82.90;;;;;;6318468;22;20003;-88
2023/01/23 03:12:50;;;;;;;6.78;4.20;;;9.00;82.90;;;;;;6282938;22;20078;-86
2023/01/23 03:15:16;;;;;;;6.75;3.92;;;9.00;82.90;;;;;;6309804;22;20000;-85
2023/01/23 03:17:42;;;;;;;6.55;3.88;;;9.00;82.90;;;;;;6282343;22;20411;-84
2023/01/23 03:20:08;;;;;;;6.32;3.80;;;9.00;82.90;;;;;;6290167;22;20052;-85
2023/01/23 03:22:33;;;;;;;7.45;4.07;;;9.00;82.90;;;;;;6289485;22;20003;-84
2023/01/23 03:25:00;;;;;;;6.65;4.00;;;9.00;82.90;;;;;;6290407;22;20006;-85
2023/01/23 03:27:25;;;;;;;6.38;4.07;;;9.00;82.90;;;;;;6288831;22;19999;-86
2023/01/23 03:32:37;;;;;;;7.40;4.22;;;9.00;82.90;;;;;;6316674;22;20010;-85
2023/01/23 03:35:03;;;;;;;6.72;3.90;;;8.90;82.80;;;;;;6315674;22;20023;-85
2023/01/23 03:37:29;;;;;;;6.72;4.15;;;9.00;82.90;;;;;;6315498;22;20024;-87
2023/01/23 03:42:39;;;;;;;6.95;3.55;;;8.90;82.90;;;;;;6313421;22;20014;-85
2023/01/23 03:45:05;;;;;;;7.00;4.18;;;9.00;82.90;;;;;;6285675;22;19999;-83
2023/01/23 03:47:31;;;;;;;6.90;4.18;;;9.00;82.90;;;;;;6281551;22;20003;-85
2023/01/23 03:49:56;;;;;;;7.90;4.55;;;9.00;83.00;;;;;;6313747;22;20315;-85
2023/01/23 03:52:23;;;;;;;7.25;4.30;;;9.00;83.00;;;;;;6314426;22;20070;-85
2023/01/23 03:54:48;;;;;;;6.65;4.10;;;9.00;83.00;;;;;;6286250;22;20011;-84
2023/01/23 03:57:14;;;;;;;7.80;4.68;;;9.00;83.00;;;;;;6282949;22;20380;-85
2023/01/23 03:59:39;;;;;;;7.35;4.30;;;9.00;83.00;;;;;;6283527;22;20003;-84
2023/01/23 04:02:05;;;;;;;6.18;3.70;;;8.90;82.90;;;;;;6284714;22;20041;-84
2023/01/23 04:04:34;;;;;;;7.53;4.38;;;9.00;83.00;;;;;;6283765;22;20003;-85
2023/01/23 04:07:00;;;;;;;6.57;4.03;;;9.00;83.00;;;;;;6285026;22;20011;-85
2023/01/23 04:09:26;;;;;;;6.90;3.90;;;9.00;83.00;;;;;;6313384;22;20023;-84
2023/01/23 04:11:53;;;;;;;6.72;4.00;;;8.90;82.90;;;;;;6280871;22;20007;-85
2023/01/23 04:14:20;;;;;;;7.30;4.20;;;9.00;83.00;;;;;;6284394;22;20049;-84
2023/01/23 04:16:45;;;;;;;6.53;3.90;;;9.00;83.00;;;;;;6311887;22;20338;-85
2023/01/23 04:19:11;;;;;;;6.85;4.03;;;9.00;83.00;;;;;;6285097;22;19999;-84
2023/01/23 04:21:36;;;;;;;6.50;4.00;;;9.00;83.00;;;;;;6312690;22;20006;-85
2023/01/23 04:24:02;;;;;;;6.40;3.80;;;9.00;83.00;;;;;;6312086;22;20360;-85
2023/01/23 04:26:27;;;;;;;6.80;3.97;;;9.00;83.00;;;;;;6281574;22;20006;-84
2023/01/23 04:28:53;;;;;;;6.45;4.00;;;9.00;83.00;;;;;;6283700;22;20011;-85
2023/01/23 04:31:18;;;;;;;6.82;3.90;;;9.00;83.00;;;;;;6284207;22;20010;-85
2023/01/23 04:33:44;;;;;;;6.28;3.80;;;9.00;83.00;;;;;;6284055;22;19996;-84
2023/01/23 04:36:10;;;;;;;7.18;4.25;;;9.00;83.00;;;;;;6279666;22;20532;-83
2023/01/23 04:38:35;;;;;;;6.70;4.10;;;8.90;82.90;;;;;;6277456;22;20061;-83
2023/01/23 04:41:02;;;;;;;7.05;4.28;;;8.90;82.90;;;;;;6276051;22;20004;-82
2023/01/23 04:43:27;;;;;;;6.93;4.00;;;9.00;83.00;;;;;;6277769;22;20003;-85
2023/01/23 04:45:54;;;;;;;7.25;4.32;;;9.00;83.00;;;;;;6278016;22;20010;-86
2023/01/23 04:48:20;;;;;;;7.57;4.07;;;9.00;83.00;;;;;;6306286;22;20003;-85
2023/01/23 04:50:46;;;;;;;6.60;3.83;;;9.00;83.00;;;;;;6278303;22;20508;-85
2023/01/23 04:53:12;;;;;;;6.88;4.15;;;9.00;83.00;;;;;;6278498;22;20014;-85
2023/01/23 04:55:38;;;;;;;7.07;4.18;;;9.00;83.00;;;;;;6277944;22;20420;-84
2023/01/23 04:58:04;;;;;;;6.68;3.90;;;8.90;82.90;;;;;;6277866;22;20004;-85
2023/01/23 05:00:29;;;;;;;6.57;4.03;;;9.00;83.00;;;;;;6278239;22;20244;-83
2023/01/23 05:02:56;;;;;;;6.18;3.85;;;9.00;83.00;;;;;;6277207;22;20014;-84
2023/01/23 05:05:22;;;;;;;6.78;3.97;;;8.90;82.90;;;;;;6305207;22;20010;-85
2023/01/23 05:07:48;;;;;;;6.57;3.78;;;8.90;82.90;;;;;;6278211;22;20014;-77
2023/01/23 05:10:15;;;;;;;7.20;4.30;;;9.00;83.00;;;;;;6304972;22;20009;-83
2023/01/23 05:12:41;;;;;;;7.53;4.55;;;9.00;83.00;;;;;;6276958;22;20003;-84
2023/01/23 05:15:08;;;;;;;7.38;4.25;;;8.90;82.80;;;;;;6278730;22;20068;-83
2023/01/23 05:17:33;;;;;;;6.53;3.80;;;9.00;82.90;;;;;;6277540;22;20004;-83
2023/01/23 05:19:59;;;;;;;6.90;3.95;;;9.00;82.90;;;;;;6305323;22;20003;-85
2023/01/23 05:22:24;;;;;;;7.22;4.05;;;8.90;82.80;;;;;;6304143;22;20011;-82
2023/01/23 05:24:50;;;;;;;6.90;4.20;;;9.00;82.90;;;;;;6304218;22;19999;-86
2023/01/23 05:27:16;;;;;;;7.25;4.20;;;9.00;82.90;;;;;;6277554;22;20000;-84
2023/01/23 05:29:41;;;;;;;6.57;3.75;;;9.00;82.90;;;;;;6279788;22;20026;-87
2023/01/23 05:32:07;;;;;;;6.63;4.03;;;9.00;83.00;;;;;;6285351;22;20041;-87
2023/01/23 05:34:32;;;;;;;6.30;3.65;;;8.90;82.90;;;;;;6285922;22;20509;-85
2023/01/23 05:36:58;;;;;;;8.07;4.57;;;8.90;82.90;;;;;;6283471;22;20076;-85
2023/01/23 05:39:23;;;;;;;8.02;4.60;;;8.90;82.80;;;;;;6281713;22;20463;-86
2023/01/23 05:41:49;;;;;;;6.45;3.88;;;9.00;82.90;;;;;;6282895;22;20006;-83
2023/01/23 05:44:14;;;;;;;7.05;3.90;;;8.90;82.90;;;;;;6284664;22;20003;-85
2023/01/23 05:46:40;;;;;;;6.72;3.90;;;8.90;82.90;;;;;;6283378;22;20066;-90
2023/01/23 05:49:06;;;;;;;6.80;3.85;;;8.90;82.90;;;;;;6282771;22;20010;-86
2023/01/23 05:51:32;;;;;;;7.03;4.35;;;8.80;82.80;;;;;;6279221;22;19999;-81
2023/01/23 05:53:59;;;;;;;6.90;4.15;;;8.90;82.90;;;;;;6280179;22;20007;-84
2023/01/23 05:56:25;;;;;;;6.50;3.90;;;8.90;82.90;;;;;;6280842;22;20683;-83
2023/01/23 05:58:51;;;;;;;7.07;4.30;;;8.90;82.90;;;;;;6283107;22;20003;-88
2023/01/23 06:01:17;;;;;;;7.88;4.50;;;9.00;83.00;;;;;;6281476;22;20034;-86
2023/01/23 06:03:43;;;;;;;7.38;4.38;;;8.90;82.90;;;;;;6283141;22;20380;-86
2023/01/23 06:06:08;;;;;;;7.00;4.20;;;8.90;82.90;;;;;;6279403;22;20003;-85
2023/01/23 06:08:34;;;;;;;7.40;4.65;;;8.90;82.90;;;;;;6281789;22;20452;-87
2023/01/23 06:10:59;;;;;;;7.00;4.10;;;9.00;83.00;;;;;;6281723;22;20003;-87
2023/01/23 06:13:26;;;;;;;7.65;4.60;;;9.00;82.90;;;;;;6280814;22;20039;-87
2023/01/23 06:15:52;;;;;;;7.10;4.30;;;8.90;82.90;;;;;;6280157;22;20007;-87
2023/01/23 06:18:18;;;;;;;7.57;4.38;;;9.00;82.90;;;;;;6283077;22;20485;-85
2023/01/23 06:20:43;;;;;;;6.53;4.13;;;9.00;83.00;;;;;;6286968;22;20007;-87
2023/01/23 06:23:09;;;;;;;6.82;4.22;;;8.90;82.90;;;;;;6291268;22;20008;-87
2023/01/23 06:25:35;;;;;;;7.65;4.55;;;9.00;83.00;;;;;;6286179;22;20459;-89
2023/01/23 06:28:01;;;;;;;7.28;4.53;;;9.00;83.00;;;;;;6282912;22;20004;-89
2023/01/23 06:30:26;;;;;;;6.93;4.28;;;8.90;82.80;;;;;;6281846;22;20049;-90
2023/01/23 06:32:52;;;;;;;6.85;4.20;;;8.90;82.80;;;;;;6308478;22;19999;-90
2023/01/23 06:35:17;;;;;;;7.53;4.20;;;9.00;82.90;;;;;;6285259;22;20503;-89
2023/01/23 06:37:43;;;;;;;6.80;3.88;;;8.90;82.90;;;;;;6288357;22;20017;-81
2023/01/23 06:40:12;;;;;;;8.13;4.80;;;8.90;82.80;;;;;;6285977;22;20003;-83
2023/01/23 06:42:38;;;;;;;7.70;4.43;;;8.90;82.60;;;;;;6294846;22;20023;-87
2023/01/23 06:45:04;;;;;;;8.98;4.65;;;9.00;82.60;;;;;;6295303;22;19999;-83
2023/01/23 06:47:30;;;;;;;7.53;4.30;;;8.90;82.50;;;;;;6295017;22;20003;-84
2023/01/23 06:49:55;;;;;;;7.40;4.55;;;8.90;82.50;;;;;;6295569;22;20025;-84
2023/01/23 06:52:21;;;;;;;7.97;4.32;;;8.90;82.60;;;;;;6294179;22;20345;-85
2023/01/23 06:54:46;;;;;;;7.97;4.57;;;9.00;82.70;;;;;;6292958;22;20003;-85
2023/01/23 06:57:12;;;;;;;8.85;4.63;;;8.90;82.60;;;;;;6293080;22;20009;-84
2023/01/23 06:59:38;;;;;;;7.85;4.70;;;9.00;82.80;;;;;;6292893;22;20014;-84
2023/01/23 07:02:03;;;;;;;7.57;4.28;;;8.90;82.70;;;;;;6292246;22;20449;-84
2023/01/23 07:04:28;;;;;;;8.07;4.57;;;8.90;82.70;;;;;;6320606;22;19999;-84
2023/01/23 07:06:54;;;;;;;7.07;4.38;;;8.90;82.80;;;;;;6291812;22;20000;-83
2023/01/23 07:09:19;;;;;;;7.90;4.50;;;8.90;82.70;;;;;;6292070;22;20429;-85
2023/01/23 07:11:45;;;;;;;7.70;4.35;;;9.00;82.80;;;;;;6319940;22;20002;-84
2023/01/23 07:14:10;;;;;;;7.68;4.57;;;8.90;82.80;;;;;;6290534;22;20003;-85
2023/01/23 07:16:36;;;;;;;8.40;4.57;;;8.90;82.80;;;;;;6290255;22;19999;-85
2023/01/23 07:19:04;;;;;;;7.55;4.22;;;8.90;82.80;;;;;;6290961;22;19995;-84
2023/01/23 07:21:29;;;;;;;7.22;4.10;;;8.90;82.80;;;;;;6291204;22;20025;-85
2023/01/23 07:23:55;;;;;;;7.57;4.55;;;8.90;82.80;;;;;;6290654;22;20449;-85
2023/01/23 07:26:20;;;;;;;8.65;4.90;;;8.90;82.80;;;;;;6288444;22;20302;-84
2023/01/23 07:28:46;;;;;;;7.72;4.82;;;9.00;82.90;;;;;;6288244;22;19995;-84
2023/01/23 07:31:11;;;;;;;8.60;4.78;;;8.90;82.80;;;;;;6289862;22;20038;-84
2023/01/23 07:33:37;;;;;;;8.57;5.03;;;8.90;82.80;;;;;;6289331;22;19999;-83
2023/01/23 07:36:06;;;;;;;7.00;4.05;;;8.90;82.80;;;;;;6288848;22;20003;-84
2023/01/23 07:38:32;;;;;;;8.10;4.82;;;8.90;82.90;;;;;;6287225;22;20007;-86
2023/01/23 07:40:58;;;;;;;8.00;4.68;;;8.90;82.90;;;;;;6288876;22;20003;-84
2023/01/23 07:43:24;;;;;;;7.82;4.70;;;8.90;82.90;;;;;;6317380;22;20003;-84
2023/01/23 07:45:49;;;;;;;7.15;4.18;;;8.90;82.80;;;;;;6320003;22;20003;-84
2023/01/23 07:48:15;;;;;;;7.32;4.22;;;9.00;83.00;;;;;;6289188;22;19999;-83
2023/01/23 07:50:41;;;;;;;7.00;4.30;;;8.90;82.90;;;;;;6287467;22;20384;-83
2023/01/23 07:53:07;;;;;;;7.03;4.40;;;8.90;82.90;;;;;;6288078;22;20007;-83
2023/01/23 07:55:33;;;;;;;7.53;4.10;;;8.90;83.00;;;;;;6287432;22;20015;-83
2023/01/23 07:57:58;;;;;;;7.22;4.38;;;8.90;83.00;;;;;;6314701;22;20346;-83
2023/01/23 08:00:24;;;;;;;7.43;4.38;;;8.90;82.90;;;;;;6315429;22;20086;-83
2023/01/23 08:02:50;;;;;;;7.82;4.47;;;8.90;82.90;;;;;;6314551;22;20007;-83
2023/01/23 08:05:15;;;;;;;7.65;4.45;;;8.90;82.90;;;;;;6314518;22;20032;-83
2023/01/23 08:07:41;;;;;;;7.20;4.22;;;8.90;82.90;;;;;;6286304;22;20311;-83
2023/01/23 08:10:07;;;;;;;8.25;4.85;;;9.00;83.00;;;;;;6291681;22;20019;-83
2023/01/23 08:12:33;;;;;;;8.05;4.53;;;8.90;83.00;;;;;;6290523;22;19999;-84
2023/01/23 08:14:59;;;;;;;7.75;4.18;;;8.90;82.90;;;;;;6315900;22;20082;-83
2023/01/23 08:17:24;;;;;;;8.10;4.78;;;8.90;83.00;;;;;;6285039;22;20010;-83
2023/01/23 08:19:50;;;;;;;7.80;4.43;;;8.90;83.00;;;;;;6287209;22;20387;-83
2023/01/23 08:22:15;;;;;;;8.05;4.80;;;9.00;83.00;;;;;;6314777;22;20005;-84
2023/01/23 08:24:41;;;;;;;7.70;4.43;;;8.90;83.00;;;;;;6315046;22;19996;-83
2023/01/23 08:27:07;;;;;;;7.88;4.90;;;8.90;83.00;;;;;;6284774;22;20011;-84
2023/01/23 08:29:32;;;;;;;7.28;4.55;;;9.00;83.00;;;;;;6314548;22;19999;-84
2023/01/23 08:31:58;;;;;;;7.35;4.38;;;8.90;82.90;;;;;;6291351;22;20025;-83
2023/01/23 08:34:24;;;;;;;9.07;4.57;;;8.90;83.00;;;;;;6314936;22;20341;-83
2023/01/23 08:36:50;;;;;;;7.22;4.18;;;9.00;83.00;;;;;;6287948;22;20125;-84
2023/01/23 08:39:16;;;;;;;7.90;4.68;;;8.90;83.00;;;;;;6287297;22;20031;-83
2023/01/23 08:41:41;;;;;;;7.07;4.10;;;9.00;83.10;;;;;;6287112;22;20026;-83
2023/01/23 08:44:07;;;;;;;8.10;5.00;;;9.00;83.00;;;;;;6288710;22;19999;-83
2023/01/23 08:46:32;;;;;;;7.32;4.18;;;8.90;82.90;;;;;;6285550;22;20015;-83
2023/01/23 08:48:58;;;;;;;7.38;4.18;;;8.90;82.90;;;;;;6313095;22;20490;-84
2023/01/23 08:51:25;;;;;;;6.88;4.15;;;9.00;83.10;;;;;;6285865;22;20035;-83
2023/01/23 08:53:52;;;;;;;7.35;4.45;;;8.90;83.00;;;;;;6285824;22;20040;-84
2023/01/23 08:56:19;;;;;;;6.95;4.10;;;8.90;83.00;;;;;;6291668;22;20014;-84
2023/01/23 08:58:45;;;;;;;6.95;4.03;;;8.90;83.00;;;;;;6298168;22;20437;-84
2023/01/23 09:01:13;;;;;;;7.50;4.20;;;8.90;83.00;;;;;;6298557;22;20039;-84
2023/01/23 09:03:38;;;;;;;8.05;4.22;;;8.90;83.00;;;;;;6296605;22;20026;-83
2023/01/23 09:06:04;;;;;;;7.88;4.07;;;9.00;83.00;;;;;;6326049;22;19995;-83
2023/01/23 09:08:30;;;;;;;7.50;4.40;;;9.00;83.10;;;;;;6299135;22;19999;-84
2023/01/23 09:11:04;;;;;;;7.50;4.50;;;8.90;82.90;;;;;;6299030;22;19999;-83
2023/01/23 09:13:29;;;;;;;7.00;4.25;;;8.90;83.00;;;;;;6298056;22;19999;-83
2023/01/23 09:15:55;;;;;;;8.05;4.60;;;9.00;83.00;;;;;;6297295;22;20026;-84
2023/01/23 09:18:21;;;;;;;7.38;4.00;;;8.90;83.00;;;;;;6324608;22;20023;-84
2023/01/23 09:20:47;;;;;;;7.78;4.30;;;9.00;83.00;;;;;;6325098;22;19999;-85
2023/01/23 09:23:13;;;;;;;6.47;4.00;;;9.00;83.00;;;;;;6296308;22;20078;-84
2023/01/23 09:25:39;;;;;;;8.23;4.55;;;8.90;83.00;;;;;;6296065;22;20000;-83
2023/01/23 09:28:04;;;;;;;7.43;4.40;;;8.90;82.90;;;;;;6294668;22;20314;-84
2023/01/23 09:30:30;;;;;;;8.40;4.30;;;8.90;83.00;;;;;;6294709;22;20010;-83
2023/01/23 09:32:55;;;;;;;6.75;3.97;;;9.00;83.00;;;;;;6323173;22;19999;-83
2023/01/23 09:35:22;;;;;;;7.82;4.50;;;9.00;83.00;;;;;;6294891;22;19999;-83
2023/01/23 09:38:00;;;;;;;8.07;4.78;;;8.90;82.90;;;;;;6293496;22;20062;-83
2023/01/23 09:40:36;;;;;;;8.10;4.45;;;9.00;83.00;;;;;;6320953;22;20434;-84
2023/01/23 09:43:14;;;;;;;7.72;4.53;;;8.90;83.00;;;;;;6293026;22;20413;-83
2023/01/23 09:45:45;;;;;;;7.35;4.32;;;9.00;83.00;;;;;;6293770;22;20006;-83
2023/01/23 09:48:28;;;;;;;7.53;4.40;;;8.90;83.00;;;;;;6300511;22;20525;-84
2023/01/23 09:51:00;;;;;;;7.45;4.45;;;8.90;83.00;;;;;;6300793;22;20000;-83
2023/01/23 09:53:35;;;;;;;7.40;4.40;;;8.90;83.00;;;;;;6326978;22;20029;-83
2023/01/23 09:56:32;;;;;;;7.25;4.10;;;9.00;83.00;;;;;;6298670;22;20013;-84
2023/01/23 09:59:24;;;;;;;7.78;4.47;;;9.00;83.10;;;;;;6299246;22;19999;-83
2023/01/23 10:01:50;;;;;;;7.72;4.25;;;9.00;83.10;;;;;;6298141;22;20029;-84
2023/01/23 10:04:18;;;;;;;7.22;3.67;;;9.00;83.00;;;;;;6297604;22;20457;-84
2023/01/23 10:06:50;;;;;;;6.60;4.00;;;9.00;83.00;;;;;;6297535;22;20421;-83
2023/01/23 10:09:44;;;;;;;6.80;3.90;;;9.00;83.00;;;;;;6296864;22;20042;-84
2023/01/23 10:12:31;;;;;;;7.82;4.18;;;8.90;83.00;;;;;;6296428;22;20003;-83
2023/01/23 10:15:39;;;;;;;7.10;4.38;;;9.00;83.00;;;;;;6295878;22;20003;-83
2023/01/23 10:18:28;;;;;;;7.22;3.90;;;9.00;83.00;;;;;;6172176;23;20009;-84
2023/01/23 10:21:00;;;;;;;7.32;4.28;;;9.00;83.00;;;;;;6314988;22;19999;-84
2023/01/23 10:23:53;;;;;;;7.60;3.90;;;9.00;83.00;;;;;;6292361;22;20441;-83
2023/01/23 10:26:22;;;;;;;7.25;4.00;;;8.90;83.00;;;;;;6292420;22;20036;-84
2023/01/23 10:28:53;;;;;;;7.60;4.50;;;9.00;83.10;;;;;;6291564;22;20010;-84
2023/01/23 10:31:43;;;;;;;6.82;4.13;;;9.00;83.00;;;;;;6293553;22;19999;-83
2023/01/23 10:34:08;;;;;;;7.50;4.28;;;9.00;83.10;;;;;;6292974;22;20030;-84
2023/01/23 10:36:51;;;;;;;7.22;4.20;;;9.00;83.10;;;;;;6290852;22;20025;-83
2023/01/23 10:39:34;;;;;;;7.78;4.78;;;9.00;83.10;;;;;;6291771;22;20011;-84
2023/01/23 10:41:59;;;;;;;8.65;5.05;;;9.00;83.00;;;;;;6290405;22;20006;-84
2023/01/23 10:44:24;;;;;;;7.63;4.22;;;9.00;83.10;;;;;;6290283;22;19995;-84
2023/01/23 10:46:58;;;;;;;7.32;4.20;;;9.00;83.00;;;;;;6292123;22;20021;-84
2023/01/23 10:49:34;;;;;;;7.63;4.07;;;9.00;83.00;;;;;;6287611;22;20003;-84
2023/01/23 10:51:59;;;;;;;7.22;4.07;;;9.00;83.00;;;;;;6290766;22;20003;-84
2023/01/23 10:54:27;;;;;;;7.80;4.40;;;9.00;83.10;;;;;;6290898;22;20448;-85
2023/01/23 10:56:57;;;;;;;6.72;3.90;;;8.90;83.00;;;;;;6288507;22;20425;-84
2023/01/23 10:59:33;;;;;;;7.25;4.20;;;8.90;83.00;;;;;;6288644;22;20445;-84
2023/01/23 11:02:13;;;;;;;7.45;4.75;;;8.90;83.00;;;;;;6289751;22;20003;-83
2023/01/23 11:04:41;;;;;;;7.50;4.18;;;9.00;83.00;;;;;;6290199;22;20030;-85
2023/01/23 11:07:14;;;;;;;8.05;4.50;;;8.90;83.00;;;;;;6287443;22;20007;-83
2023/01/23 11:09:47;;;;;;;7.57;4.20;;;9.00;83.00;;;;;;6286714;22;20002;-83
2023/01/23 11:12:20;;;;;;;8.15;4.80;;;9.00;83.10;;;;;;6288650;22;20014;-84
2023/01/23 11:14:46;;;;;;;7.45;4.65;;;9.00;83.10;;;;;;6289646;22;20094;-84
2023/01/23 11:17:21;;;;;;;7.28;4.38;;;9.00;83.10;;;;;;6287898;22;20022;-84
2023/01/23 11:19:50;;;;;;;7.78;4.30;;;9.00;83.00;;;;;;6316200;22;20330;-83
2023/01/23 11:22:28;;;;;;;8.20;4.40;;;9.00;83.00;;;;;;6286700;22;20015;-83
2023/01/23 11:24:54;;;;;;;7.18;4.30;;;9.00;83.00;;;;;;6286737;22;20361;-84
2023/01/23 11:27:27;;;;;;;7.22;4.28;;;9.00;83.00;;;;;;6286910;22;20086;-84
2023/01/23 11:30:07;;;;;;;7.03;4.10;;;9.00;83.00;;;;;;6288084;22;19999;-83
2023/01/23 11:32:41;;;;;;;7.22;4.32;;;9.00;83.10;;;;;;6288796;22;20003;-83
2023/01/23 11:35:14;;;;;;;7.07;4.43;;;9.00;83.10;;;;;;6320071;22;20010;-83
2023/01/23 11:37:40;;;;;;;7.90;4.28;;;9.00;83.10;;;;;;6314699;22;20011;-84
2023/01/23 11:40:09;;;;;;;8.45;4.53;;;9.00;83.10;;;;;;6286724;22;20057;-84
2023/01/23 11:42:39;;;;;;;7.70;4.63;;;9.00;83.00;;;;;;6285875;22;20015;-84
2023/01/23 11:45:11;;;;;;;7.60;4.57;;;9.00;83.00;;;;;;6286153;22;20070;-81
2023/01/23 11:47:55;;;;;;;7.80;4.30;;;9.00;83.00;;;;;;6315193;22;19991;-83
2023/01/23 11:50:49;;;;;;;7.72;4.30;;;9.00;83.10;;;;;;6285583;22;20003;-84
2023/01/23 11:53:25;;;;;;;7.00;4.18;;;9.00;83.00;;;;;;6285144;22;20010;-83
2023/01/23 11:56:26;;;;;;;8.40;4.53;;;9.00;83.00;;;;;;6285721;22;20038;-84
2023/01/23 11:58:51;;;;;;;;;;;9.00;83.10;;;;;;6286815;22;20089;-84
2023/01/23 12:01:43;;;;;;;8.43;4.70;;;9.00;83.10;;;;;;6287257;22;19899;-83
2023/01/23 12:04:20;;;;;;;7.47;4.60;;;9.00;83.10;;;;;;6288209;22;20015;-84
2023/01/23 12:06:49;;;;;;;6.78;4.03;;;9.00;83.10;;;;;;6287704;22;19995;-84
2023/01/23 12:09:19;;;;;;;6.95;4.20;;;9.00;83.10;;;;;;6286269;22;19999;-84
2023/01/23 12:12:08;;;;;;;7.43;4.30;;;9.00;83.10;;;;;;6286803;22;20319;-83
2023/01/23 12:14:45;;;;;;;7.35;4.25;;;9.00;83.10;;;;;;6313832;22;20000;-84
2023/01/23 12:17:37;;;;;;;7.53;4.57;;;9.00;83.00;;;;;;6285672;22;19999;-84
2023/01/23 12:20:22;;;;;;;7.22;4.00;;;9.00;83.10;;;;;;6285401;22;20023;-84
2023/01/23 12:23:06;;;;;;;7.28;4.18;;;9.00;83.10;;;;;;6284917;22;20468;-84
2023/01/23 12:25:36;;;;;;;7.20;4.18;;;9.00;83.10;;;;;;6310053;22;19999;-83
2023/01/23 12:28:25;;;;;;;7.10;4.15;;;9.00;83.10;;;;;;6293986;22;20417;-84
2023/01/23 12:30:55;;;;;;;13.82;4.90;;;9.00;83.10;;;;;;6300024;22;20067;-83
2023/01/23 12:33:27;;;;;;;8.20;4.80;;;9.00;83.10;;;;;;6299118;22;20003;-84
2023/01/23 12:36:13;;;;;;;7.53;4.57;;;9.00;83.10;;;;;;6298061;22;20003;-84
2023/01/23 12:39:01;;;;;;;7.22;4.28;;;9.00;83.10;;;;;;6324925;22;20018;-83
2023/01/23 12:41:48;;;;;;;7.80;4.57;;;9.00;83.10;;;;;;6325654;22;20059;-84
2023/01/23 12:44:25;;;;;;;7.57;4.55;;;9.00;83.10;;;;;;6324502;22;19999;-84
2023/01/23 12:47:12;;;;;;;7.00;4.13;;;9.00;83.10;;;;;;6293007;22;19999;-84
2023/01/23 12:49:47;;;;;;;8.80;4.60;;;9.00;83.10;;;;;;6322715;22;20027;-83
2023/01/23 12:52:33;;;;;;;7.97;4.45;;;9.00;83.10;;;;;;6295617;22;20426;-83
2023/01/23 12:55:19;;;;;;;7.38;4.35;;;9.00;83.10;;;;;;6295028;22;20010;-84
2023/01/23 12:57:53;;;;;;;7.30;4.10;;;9.00;83.60;;;;;;6322051;22;20498;-84
2023/01/23 13:00:43;;;;;;;7.40;4.30;;;9.00;83.10;;;;;;6293307;22;20007;-84
2023/01/23 13:03:25;;;;;;;;;;;9.00;83.00;;;;;;6317721;22;20438;-84
2023/01/23 13:06:00;;;;;;;8.20;4.72;;;9.00;83.00;;;;;;6315361;22;20349;-84
2023/01/23 13:08:38;;;;;;;7.20;4.32;;;9.00;83.00;;;;;;6290454;22;20019;-84
2023/01/23 13:14:21;;;;;;;7.93;4.30;;;9.00;83.00;;;;;;6319819;22;20014;-83
2023/01/23 13:16:49;;;;;;;8.05;4.68;;;9.00;83.10;;;;;;6291222;22;20007;-85
2023/01/23 13:22:21;;;;;;;8.10;4.45;;;9.00;83.60;;;;;;6325496;22;20029;-82